sensor_id;sensor_type;location;lat;lon;timestamp;pressure;altitude;pressure_sealevel;temperature;humidity
46718;BME280;32448;44.960;-0.698;2023-04-07T00:02:04;101736.47;;;6.14;100.00
46718;BME280;32448;44.960;-0.698;2023-04-07T00:04:31;101731.72;;;6.05;100.00
46718;BME280;32448;44.960;-0.698;2023-04-07T00:06:58;101724.66;;;6.03;100.00
46718;BME280;32448;44.960;-0.698;2023-04-07T00:09:25;101724.41;;;5.98;100.00
46718;BME280;32448;44.960;-0.698;2023-04-07T00:11:52;101722.34;;;5.91;100.00
46718;BME280;32448;44.960;-0.698;2023-04-07T00:14:19;101727.44;;;5.90;100.00
46718;BME280;32448;44.960;-0.698;2023-04-07T00:16:46;101722.06;;;5.86;100.00
46718;BME280;32448;44.960;-0.698;2023-04-07T00:19:14;101731.97;;;5.77;100.00
46718;BME280;32448;44.960;-0.698;2023-04-07T00:21:42;101700.81;;;5.60;100.00
46718;BME280;32448;44.960;-0.698;2023-04-07T00:24:09;101725.34;;;5.66;100.00
46718;BME280;32448;44.960;-0.698;2023-04-07T00:26:38;101724.94;;;5.59;100.00
46718;BME280;32448;44.960;-0.698;2023-04-07T00:29:05;101724.31;;;5.46;100.00
46718;BME280;32448;44.960;-0.698;2023-04-07T00:31:32;101723.66;;;5.51;100.00
46718;BME280;32448;44.960;-0.698;2023-04-07T00:33:59;101720.66;;;5.43;100.00
46718;BME280;32448;44.960;-0.698;2023-04-07T00:36:27;101719.75;;;5.42;100.00
46718;BME280;32448;44.960;-0.698;2023-04-07T00:38:54;101729.41;;;5.45;100.00
46718;BME280;32448;44.960;-0.698;2023-04-07T00:41:22;101728.41;;;5.43;100.00
46718;BME280;32448;44.960;-0.698;2023-04-07T00:43:52;101721.41;;;5.40;100.00
46718;BME280;32448;44.960;-0.698;2023-04-07T00:46:19;101727.06;;;5.33;100.00
46718;BME280;32448;44.960;-0.698;2023-04-07T00:48:47;101730.84;;;5.24;100.00
46718;BME280;32448;44.960;-0.698;2023-04-07T00:51:15;101723.88;;;5.23;100.00
46718;BME280;32448;44.960;-0.698;2023-04-07T00:53:42;101720.41;;;5.22;100.00
46718;BME280;32448;44.960;-0.698;2023-04-07T00:56:09;101721.13;;;5.20;100.00
46718;BME280;32448;44.960;-0.698;2023-04-07T00:58:36;101698.88;;;5.07;100.00
46718;BME280;32448;44.960;-0.698;2023-04-07T01:01:11;101726.25;;;5.18;100.00
46718;BME280;32448;44.960;-0.698;2023-04-07T01:03:43;101719.19;;;5.16;100.00
46718;BME280;32448;44.960;-0.698;2023-04-07T01:06:13;101716.44;;;5.12;100.00
46718;BME280;32448;44.960;-0.698;2023-04-07T01:08:46;101721.22;;;5.05;100.00
46718;BME280;32448;44.960;-0.698;2023-04-07T01:11:23;101714.97;;;5.01;100.00
46718;BME280;32448;44.960;-0.698;2023-04-07T01:13:53;101712.88;;;5.10;100.00
46718;BME280;32448;44.960;-0.698;2023-04-07T01:16:36;101708.25;;;5.21;100.00
46718;BME280;32448;44.960;-0.698;2023-04-07T01:19:15;101703.41;;;5.27;100.00
46718;BME280;32448;44.960;-0.698;2023-04-07T01:21:52;101709.97;;;5.37;100.00
46718;BME280;32448;44.960;-0.698;2023-04-07T01:24:25;101702.75;;;5.47;100.00
46718;BME280;32448;44.960;-0.698;2023-04-07T01:26:59;101709.06;;;5.53;100.00
46718;BME280;32448;44.960;-0.698;2023-04-07T01:32:01;101698.94;;;5.57;100.00
46718;BME280;32448;44.960;-0.698;2023-04-07T01:34:30;101698.59;;;5.67;100.00
46718;BME280;32448;44.960;-0.698;2023-04-07T01:37:00;101696.63;;;5.79;100.00
46718;BME280;32448;44.960;-0.698;2023-04-07T01:39:27;101695.22;;;5.86;100.00
46718;BME280;32448;44.960;-0.698;2023-04-07T01:41:55;101686.75;;;5.89;100.00
46718;BME280;32448;44.960;-0.698;2023-04-07T01:44:26;101690.38;;;5.92;100.00
46718;BME280;32448;44.960;-0.698;2023-04-07T01:46:54;101686.19;;;5.94;100.00
46718;BME280;32448;44.960;-0.698;2023-04-07T01:49:22;101678.22;;;5.91;100.00
46718;BME280;32448;44.960;-0.698;2023-04-07T01:51:51;101689.78;;;5.98;100.00
46718;BME280;32448;44.960;-0.698;2023-04-07T01:54:19;101689.88;;;5.99;100.00
46718;BME280;32448;44.960;-0.698;2023-04-07T01:56:47;101682.25;;;6.02;100.00
46718;BME280;32448;44.960;-0.698;2023-04-07T01:59:14;101680.72;;;6.06;100.00
46718;BME280;32448;44.960;-0.698;2023-04-07T02:01:41;101687.72;;;6.08;100.00
46718;BME280;32448;44.960;-0.698;2023-04-07T02:04:11;101680.09;;;6.11;100.00
46718;BME280;32448;44.960;-0.698;2023-04-07T02:06:43;101687.41;;;6.18;100.00
46718;BME280;32448;44.960;-0.698;2023-04-07T02:09:17;101683.44;;;6.09;100.00
46718;BME280;32448;44.960;-0.698;2023-04-07T02:11:46;101681.59;;;6.06;100.00
46718;BME280;32448;44.960;-0.698;2023-04-07T02:14:14;101686.72;;;6.05;100.00
46718;BME280;32448;44.960;-0.698;2023-04-07T02:16:57;101681.97;;;5.96;100.00
46718;BME280;32448;44.960;-0.698;2023-04-07T02:19:25;101680.19;;;5.95;100.00
46718;BME280;32448;44.960;-0.698;2023-04-07T02:21:54;101678.75;;;5.85;100.00
46718;BME280;32448;44.960;-0.698;2023-04-07T02:24:21;101676.47;;;5.74;100.00
46718;BME280;32448;44.960;-0.698;2023-04-07T02:26:49;101682.13;;;5.67;100.00
46718;BME280;32448;44.960;-0.698;2023-04-07T02:29:16;101684.91;;;5.70;100.00
46718;BME280;32448;44.960;-0.698;2023-04-07T02:31:43;101673.47;;;5.66;100.00
46718;BME280;32448;44.960;-0.698;2023-04-07T02:34:10;101676.13;;;5.68;100.00
46718;BME280;32448;44.960;-0.698;2023-04-07T02:36:37;101675.09;;;5.64;100.00
46718;BME280;32448;44.960;-0.698;2023-04-07T02:39:05;101679.06;;;5.58;100.00
46718;BME280;32448;44.960;-0.698;2023-04-07T02:41:32;101670.09;;;5.51;100.00
46718;BME280;32448;44.960;-0.698;2023-04-07T02:44:00;101675.03;;;5.46;100.00
46718;BME280;32448;44.960;-0.698;2023-04-07T02:46:27;101675.78;;;5.44;100.00
46718;BME280;32448;44.960;-0.698;2023-04-07T02:48:55;101669.78;;;5.45;100.00
46718;BME280;32448;44.960;-0.698;2023-04-07T02:51:22;101678.59;;;5.48;100.00
46718;BME280;32448;44.960;-0.698;2023-04-07T02:53:50;101675.22;;;5.49;100.00
46718;BME280;32448;44.960;-0.698;2023-04-07T02:56:17;101684.34;;;5.59;100.00
46718;BME280;32448;44.960;-0.698;2023-04-07T02:58:44;101678.34;;;5.60;100.00
46718;BME280;32448;44.960;-0.698;2023-04-07T03:01:11;101684.66;;;5.65;100.00
46718;BME280;32448;44.960;-0.698;2023-04-07T03:03:38;101674.16;;;5.80;100.00
46718;BME280;32448;44.960;-0.698;2023-04-07T03:06:13;101677.81;;;5.83;100.00
46718;BME280;32448;44.960;-0.698;2023-04-07T03:08:52;101676.53;;;5.92;100.00
46718;BME280;32448;44.960;-0.698;2023-04-07T03:11:19;101670.44;;;5.91;100.00
46718;BME280;32448;44.960;-0.698;2023-04-07T03:13:46;101674.41;;;5.84;100.00
46718;BME280;32448;44.960;-0.698;2023-04-07T03:16:14;101673.56;;;5.85;100.00
46718;BME280;32448;44.960;-0.698;2023-04-07T03:18:54;101667.38;;;5.82;100.00
46718;BME280;32448;44.960;-0.698;2023-04-07T03:21:21;101669.50;;;5.73;100.00
46718;BME280;32448;44.960;-0.698;2023-04-07T03:23:49;101682.13;;;5.67;100.00
46718;BME280;32448;44.960;-0.698;2023-04-07T03:26:17;101673.38;;;5.65;100.00
46718;BME280;32448;44.960;-0.698;2023-04-07T03:28:43;101669.75;;;5.61;100.00
46718;BME280;32448;44.960;-0.698;2023-04-07T03:31:12;101681.84;;;5.61;100.00
46718;BME280;32448;44.960;-0.698;2023-04-07T03:33:39;101671.56;;;5.62;100.00
46718;BME280;32448;44.960;-0.698;2023-04-07T03:36:06;101666.41;;;5.64;100.00
46718;BME280;32448;44.960;-0.698;2023-04-07T03:38:34;101666.03;;;5.56;100.00
46718;BME280;32448;44.960;-0.698;2023-04-07T03:41:03;101666.28;;;5.61;100.00
46718;BME280;32448;44.960;-0.698;2023-04-07T03:43:30;101659.22;;;5.58;100.00
46718;BME280;32448;44.960;-0.698;2023-04-07T03:46:00;101666.13;;;5.58;100.00
46718;BME280;32448;44.960;-0.698;2023-04-07T03:48:27;101661.53;;;5.52;100.00
46718;BME280;32448;44.960;-0.698;2023-04-07T03:51:04;101662.25;;;5.49;100.00
46718;BME280;32448;44.960;-0.698;2023-04-07T03:53:39;101666.38;;;5.46;100.00
46718;BME280;32448;44.960;-0.698;2023-04-07T03:56:23;101664.13;;;5.36;100.00
46718;BME280;32448;44.960;-0.698;2023-04-07T03:58:53;101667.34;;;5.32;100.00
46718;BME280;32448;44.960;-0.698;2023-04-07T04:01:34;101665.91;;;5.37;100.00
46718;BME280;32448;44.960;-0.698;2023-04-07T04:04:09;101673.50;;;5.34;100.00
46718;BME280;32448;44.960;-0.698;2023-04-07T04:06:37;101677.25;;;5.39;100.00
46718;BME280;32448;44.960;-0.698;2023-04-07T04:09:18;101680.31;;;5.48;100.00
46718;BME280;32448;44.960;-0.698;2023-04-07T04:11:47;101679.06;;;5.58;100.00
46718;BME280;32448;44.960;-0.698;2023-04-07T04:14:15;101678.03;;;5.54;100.00
46718;BME280;32448;44.960;-0.698;2023-04-07T04:16:48;101678.34;;;5.60;100.00
46718;BME280;32448;44.960;-0.698;2023-04-07T04:19:38;101679.63;;;5.68;100.00
46718;BME280;32448;44.960;-0.698;2023-04-07T04:22:13;101672.22;;;5.76;100.00
46718;BME280;32448;44.960;-0.698;2023-04-07T04:24:47;101673.28;;;5.79;100.00
46718;BME280;32448;44.960;-0.698;2023-04-07T04:27:14;101676.16;;;5.85;100.00
46718;BME280;32448;44.960;-0.698;2023-04-07T04:29:45;101679.19;;;5.93;100.00
46718;BME280;32448;44.960;-0.698;2023-04-07T04:32:14;101682.78;;;5.95;100.00
46718;BME280;32448;44.960;-0.698;2023-04-07T04:34:43;101678.59;;;5.99;100.00
46718;BME280;32448;44.960;-0.698;2023-04-07T04:37:11;101677.06;;;6.02;100.00
46718;BME280;32448;44.960;-0.698;2023-04-07T04:39:41;101678.13;;;6.06;100.00
46718;BME280;32448;44.960;-0.698;2023-04-07T04:42:11;101670.44;;;6.09;100.00
46718;BME280;32448;44.960;-0.698;2023-04-07T04:44:38;101670.94;;;6.18;100.00
46718;BME280;32448;44.960;-0.698;2023-04-07T04:47:06;101669.28;;;6.20;100.00
46718;BME280;32448;44.960;-0.698;2023-04-07T04:49:38;101674.94;;;6.29;100.00
46718;BME280;32448;44.960;-0.698;2023-04-07T04:52:09;101678.47;;;6.31;100.00
46718;BME280;32448;44.960;-0.698;2023-04-07T04:54:40;101681.38;;;6.37;100.00
46718;BME280;32448;44.960;-0.698;2023-04-07T04:57:14;101682.56;;;6.44;100.00
46718;BME280;32448;44.960;-0.698;2023-04-07T04:59:43;101681.75;;;6.45;100.00
46718;BME280;32448;44.960;-0.698;2023-04-07T05:02:14;101679.31;;;6.48;100.00
46718;BME280;32448;44.960;-0.698;2023-04-07T05:04:41;101675.19;;;6.53;100.00
46718;BME280;32448;44.960;-0.698;2023-04-07T05:07:18;101672.69;;;6.54;100.00
46718;BME280;32448;44.960;-0.698;2023-04-07T05:09:45;101669.41;;;6.58;100.00
46718;BME280;32448;44.960;-0.698;2023-04-07T05:12:14;101668.00;;;6.65;100.00
46718;BME280;32448;44.960;-0.698;2023-04-07T05:14:46;101671.72;;;6.70;100.00
46718;BME280;32448;44.960;-0.698;2023-04-07T05:17:14;101663.09;;;6.71;100.00
46718;BME280;32448;44.960;-0.698;2023-04-07T05:19:42;101665.78;;;6.73;100.00
46718;BME280;32448;44.960;-0.698;2023-04-07T05:22:15;101670.28;;;6.77;100.00
46718;BME280;32448;44.960;-0.698;2023-04-07T05:24:46;101676.34;;;6.77;100.00
46718;BME280;32448;44.960;-0.698;2023-04-07T05:27:13;101674.88;;;6.82;100.00
46718;BME280;32448;44.960;-0.698;2023-04-07T05:29:41;101672.53;;;6.88;100.00
46718;BME280;32448;44.960;-0.698;2023-04-07T05:32:18;101675.28;;;6.91;100.00
46718;BME280;32448;44.960;-0.698;2023-04-07T05:34:46;101683.25;;;6.94;100.00
46718;BME280;32448;44.960;-0.698;2023-04-07T05:37:15;101686.84;;;6.98;100.00
46718;BME280;32448;44.960;-0.698;2023-04-07T05:39:42;101678.16;;;6.98;100.00
46718;BME280;32448;44.960;-0.698;2023-04-07T05:42:12;101677.34;;;6.99;100.00
46718;BME280;32448;44.960;-0.698;2023-04-07T05:44:40;101682.75;;;7.03;100.00
46718;BME280;32448;44.960;-0.698;2023-04-07T05:47:08;101686.25;;;7.04;100.00
46718;BME280;32448;44.960;-0.698;2023-04-07T05:49:38;101683.81;;;7.07;100.00
46718;BME280;32448;44.960;-0.698;2023-04-07T05:52:12;101684.00;;;7.11;100.00
46718;BME280;32448;44.960;-0.698;2023-04-07T05:54:43;101685.72;;;7.11;100.00
46718;BME280;32448;44.960;-0.698;2023-04-07T05:57:13;101681.53;;;7.14;100.00
46718;BME280;32448;44.960;-0.698;2023-04-07T05:59:43;101686.94;;;7.19;100.00
46718;BME280;32448;44.960;-0.698;2023-04-07T06:02:10;101688.78;;;7.21;100.00
46718;BME280;32448;44.960;-0.698;2023-04-07T06:04:38;101686.47;;;7.27;100.00
46718;BME280;32448;44.960;-0.698;2023-04-07T06:07:07;101688.38;;;7.31;100.00
46718;BME280;32448;44.960;-0.698;2023-04-07T06:09:37;101693.66;;;7.33;100.00
46718;BME280;32448;44.960;-0.698;2023-04-07T06:12:04;101692.97;;;7.37;100.00
46718;BME280;32448;44.960;-0.698;2023-04-07T06:14:54;101692.34;;;7.43;100.00
46718;BME280;32448;44.960;-0.698;2023-04-07T06:17:21;101688.25;;;7.48;100.00
46718;BME280;32448;44.960;-0.698;2023-04-07T06:19:48;101687.44;;;7.49;100.00
46718;BME280;32448;44.960;-0.698;2023-04-07T06:22:16;101692.06;;;7.56;100.00
46718;BME280;32448;44.960;-0.698;2023-04-07T06:24:43;101687.97;;;7.61;100.00
46718;BME280;32448;44.960;-0.698;2023-04-07T06:27:10;101688.16;;;7.65;100.00
46718;BME280;32448;44.960;-0.698;2023-04-07T06:29:37;101691.91;;;7.72;100.00
46718;BME280;32448;44.960;-0.698;2023-04-07T06:32:07;101693.94;;;7.79;100.00
46718;BME280;32448;44.960;-0.698;2023-04-07T06:34:35;101692.38;;;7.83;100.00
46718;BME280;32448;44.960;-0.698;2023-04-07T06:37:02;101696.13;;;7.89;100.00
46718;BME280;32448;44.960;-0.698;2023-04-07T06:39:31;101702.34;;;7.93;100.00
46718;BME280;32448;44.960;-0.698;2023-04-07T06:41:58;101699.81;;;7.94;100.00
46718;BME280;32448;44.960;-0.698;2023-04-07T06:44:26;101702.59;;;7.99;100.00
46718;BME280;32448;44.960;-0.698;2023-04-07T06:46:53;101705.34;;;8.02;100.00
46718;BME280;32448;44.960;-0.698;2023-04-07T06:49:21;101696.88;;;8.08;100.00
46718;BME280;32448;44.960;-0.698;2023-04-07T06:51:48;101700.81;;;8.19;100.00
46718;BME280;32448;44.960;-0.698;2023-04-07T06:54:16;101704.50;;;8.24;100.00
46718;BME280;32448;44.960;-0.698;2023-04-07T06:56:43;101713.44;;;8.50;100.00
46718;BME280;32448;44.960;-0.698;2023-04-07T06:59:12;101712.53;;;8.49;100.00
46718;BME280;32448;44.960;-0.698;2023-04-07T07:01:39;101710.16;;;8.55;100.00
46718;BME280;32448;44.960;-0.698;2023-04-07T07:04:06;101716.41;;;8.59;100.00
46718;BME280;32448;44.960;-0.698;2023-04-07T07:06:33;101713.91;;;8.62;100.00
46718;BME280;32448;44.960;-0.698;2023-04-07T07:09:00;101727.31;;;8.71;100.00
46718;BME280;32448;44.960;-0.698;2023-04-07T07:11:28;101722.41;;;8.79;100.00
46718;BME280;32448;44.960;-0.698;2023-04-07T07:13:56;101725.19;;;8.83;100.00
46718;BME280;32448;44.960;-0.698;2023-04-07T07:16:23;101728.78;;;8.87;100.00
46718;BME280;32448;44.960;-0.698;2023-04-07T07:18:50;101717.59;;;8.89;100.00
46718;BME280;32448;44.960;-0.698;2023-04-07T07:21:17;101721.22;;;8.93;100.00
46718;BME280;32448;44.960;-0.698;2023-04-07T07:23:45;101718.13;;;9.03;100.00
46718;BME280;32448;44.960;-0.698;2023-04-07T07:26:12;101708.94;;;9.12;100.00
46718;BME280;32448;44.960;-0.698;2023-04-07T07:28:39;101710.09;;;9.21;100.00
46718;BME280;32448;44.960;-0.698;2023-04-07T07:31:10;101704.13;;;9.23;100.00
46718;BME280;32448;44.960;-0.698;2023-04-07T07:33:39;101707.53;;;9.44;100.00
46718;BME280;32448;44.960;-0.698;2023-04-07T07:36:07;101705.91;;;9.48;100.00
46718;BME280;32448;44.960;-0.698;2023-04-07T07:38:34;101705.19;;;9.52;100.00
46718;BME280;32448;44.960;-0.698;2023-04-07T07:41:03;101704.59;;;9.59;100.00
46718;BME280;32448;44.960;-0.698;2023-04-07T07:43:30;101693.78;;;9.74;100.00
46718;BME280;32448;44.960;-0.698;2023-04-07T07:45:57;101696.03;;;9.89;100.00
46718;BME280;32448;44.960;-0.698;2023-04-07T07:48:24;101701.63;;;9.99;100.00
46718;BME280;32448;44.960;-0.698;2023-04-07T07:50:51;101696.31;;;10.21;100.00
46718;BME280;32448;44.960;-0.698;2023-04-07T07:53:18;101690.72;;;10.36;100.00
46718;BME280;32448;44.960;-0.698;2023-04-07T07:55:47;101687.50;;;10.45;100.00
46718;BME280;32448;44.960;-0.698;2023-04-07T07:58:16;101676.69;;;10.61;100.00
46718;BME280;32448;44.960;-0.698;2023-04-07T08:00:43;101676.16;;;10.71;100.00
46718;BME280;32448;44.960;-0.698;2023-04-07T08:03:10;101674.75;;;10.82;100.00
46718;BME280;32448;44.960;-0.698;2023-04-07T08:05:37;101681.31;;;10.98;100.00
46718;BME280;32448;44.960;-0.698;2023-04-07T08:08:04;101678.34;;;11.16;100.00
46718;BME280;32448;44.960;-0.698;2023-04-07T08:10:31;101671.06;;;11.36;100.00
46718;BME280;32448;44.960;-0.698;2023-04-07T08:12:58;101671.25;;;11.42;100.00
46718;BME280;32448;44.960;-0.698;2023-04-07T08:15:25;101674.19;;;11.54;100.00
46718;BME280;32448;44.960;-0.698;2023-04-07T08:17:52;101673.69;;;11.67;100.00
46718;BME280;32448;44.960;-0.698;2023-04-07T08:20:21;101673.78;;;11.70;100.00
46718;BME280;32448;44.960;-0.698;2023-04-07T08:22:49;101672.75;;;11.65;100.00
46718;BME280;32448;44.960;-0.698;2023-04-07T08:25:17;101672.06;;;11.72;100.00
46718;BME280;32448;44.960;-0.698;2023-04-07T08:27:44;101665.41;;;11.83;100.00
46718;BME280;32448;44.960;-0.698;2023-04-07T08:30:11;101660.00;;;12.10;100.00
46718;BME280;32448;44.960;-0.698;2023-04-07T08:32:39;101665.41;;;12.18;100.00
46718;BME280;32448;44.960;-0.698;2023-04-07T08:35:07;101667.56;;;12.34;100.00
46718;BME280;32448;44.960;-0.698;2023-04-07T08:37:34;101660.00;;;12.46;100.00
46718;BME280;32448;44.960;-0.698;2023-04-07T08:40:02;101662.22;;;12.67;100.00
46718;BME280;32448;44.960;-0.698;2023-04-07T08:42:30;101657.84;;;12.66;100.00
46718;BME280;32448;44.960;-0.698;2023-04-07T08:45:01;101664.66;;;12.98;100.00
46718;BME280;32448;44.960;-0.698;2023-04-07T08:47:32;101653.03;;;12.86;100.00
46718;BME280;32448;44.960;-0.698;2023-04-07T08:50:00;101657.56;;;12.94;100.00
46718;BME280;32448;44.960;-0.698;2023-04-07T08:52:37;101654.97;;;12.96;100.00
46718;BME280;32448;44.960;-0.698;2023-04-07T08:55:06;101657.53;;;12.91;100.00
46718;BME280;32448;44.960;-0.698;2023-04-07T08:57:34;101655.31;;;13.11;100.00
46718;BME280;32448;44.960;-0.698;2023-04-07T09:00:02;101646.88;;;13.26;100.00
46718;BME280;32448;44.960;-0.698;2023-04-07T09:02:32;101647.84;;;13.29;100.00
46718;BME280;32448;44.960;-0.698;2023-04-07T09:05:01;101642.28;;;13.58;100.00
46718;BME280;32448;44.960;-0.698;2023-04-07T09:07:30;101650.63;;;13.85;100.00
46718;BME280;32448;44.960;-0.698;2023-04-07T09:09:57;101647.16;;;13.86;100.00
46718;BME280;32448;44.960;-0.698;2023-04-07T09:12:24;101647.31;;;13.95;100.00
46718;BME280;32448;44.960;-0.698;2023-04-07T09:14:51;101646.72;;;14.11;100.00
46718;BME280;32448;44.960;-0.698;2023-04-07T09:17:19;101639.22;;;14.34;100.00
46718;BME280;32448;44.960;-0.698;2023-04-07T09:19:47;101640.31;;;14.47;100.00
46718;BME280;32448;44.960;-0.698;2023-04-07T09:22:14;101633.38;;;14.53;100.00
46718;BME280;32448;44.960;-0.698;2023-04-07T09:24:41;101630.38;;;14.31;100.00
46718;BME280;32448;44.960;-0.698;2023-04-07T09:27:11;101638.22;;;14.29;100.00
46718;BME280;32448;44.960;-0.698;2023-04-07T09:29:42;101640.88;;;14.31;100.00
46718;BME280;32448;44.960;-0.698;2023-04-07T09:32:10;101641.00;;;14.38;100.00
46718;BME280;32448;44.960;-0.698;2023-04-07T09:34:38;101640.41;;;14.54;100.00
46718;BME280;32448;44.960;-0.698;2023-04-07T09:37:07;101635.31;;;14.65;100.00
46718;BME280;32448;44.960;-0.698;2023-04-07T09:39:48;101637.03;;;14.63;100.00
46718;BME280;32448;44.960;-0.698;2023-04-07T09:42:15;101639.16;;;14.91;100.00
46718;BME280;32448;44.960;-0.698;2023-04-07T09:44:42;101636.19;;;14.66;100.00
46718;BME280;32448;44.960;-0.698;2023-04-07T09:47:10;101633.47;;;14.60;100.00
46718;BME280;32448;44.960;-0.698;2023-04-07T09:49:50;101629.06;;;14.60;100.00
46718;BME280;32448;44.960;-0.698;2023-04-07T09:52:18;101627.78;;;14.34;100.00
46718;BME280;32448;44.960;-0.698;2023-04-07T09:54:46;101634.56;;;14.19;100.00
46718;BME280;32448;44.960;-0.698;2023-04-07T09:57:13;101638.19;;;14.25;100.00
46718;BME280;32448;44.960;-0.698;2023-04-07T09:59:43;101629.38;;;14.23;100.00
46718;BME280;32448;44.960;-0.698;2023-04-07T10:02:10;101631.66;;;14.01;100.00
46718;BME280;32448;44.960;-0.698;2023-04-07T10:04:38;101628.66;;;13.81;100.00
46718;BME280;32448;44.960;-0.698;2023-04-07T10:07:06;101626.03;;;13.80;100.00
46718;BME280;32448;44.960;-0.698;2023-04-07T10:09:33;101627.78;;;13.79;100.00
46718;BME280;32448;44.960;-0.698;2023-04-07T10:12:00;101618.34;;;13.91;100.00
46718;BME280;32448;44.960;-0.698;2023-04-07T10:14:31;101619.63;;;14.17;100.00
46718;BME280;32448;44.960;-0.698;2023-04-07T10:16:58;101612.19;;;14.43;100.00
46718;BME280;32448;44.960;-0.698;2023-04-07T10:19:28;101609.56;;;14.43;100.00
46718;BME280;32448;44.960;-0.698;2023-04-07T10:21:57;101612.22;;;14.47;100.00
46718;BME280;32448;44.960;-0.698;2023-04-07T10:27:03;101595.41;;;14.38;100.00
46718;BME280;32448;44.960;-0.698;2023-04-07T10:29:33;101597.81;;;14.23;100.00
46718;BME280;32448;44.960;-0.698;2023-04-07T10:32:01;101592.69;;;14.32;100.00
46718;BME280;32448;44.960;-0.698;2023-04-07T10:35:02;101592.91;;;14.44;100.00
46718;BME280;32448;44.960;-0.698;2023-04-07T10:37:24;101586.56;;;14.94;100.00
46718;BME280;32448;44.960;-0.698;2023-04-07T10:47:32;101563.06;;;16.05;100.00
46718;BME280;32448;44.960;-0.698;2023-04-07T10:50:16;101557.91;;;16.25;100.00
46718;BME280;32448;44.960;-0.698;2023-04-07T10:52:47;101563.22;;;16.26;100.00
46718;BME280;32448;44.960;-0.698;2023-04-07T10:55:27;101556.88;;;16.03;100.00
46718;BME280;32448;44.960;-0.698;2023-04-07T10:58:14;101556.94;;;16.08;100.00
46718;BME280;32448;44.960;-0.698;2023-04-07T11:00:42;101555.94;;;15.93;100.00
46718;BME280;32448;44.960;-0.698;2023-04-07T11:03:10;101552.34;;;15.82;100.00
46718;BME280;32448;44.960;-0.698;2023-04-07T11:05:40;101550.72;;;15.98;100.00
46718;BME280;32448;44.960;-0.698;2023-04-07T11:08:08;101558.00;;;16.32;100.00
46718;BME280;32448;44.960;-0.698;2023-04-07T11:10:35;101552.03;;;16.64;100.00
46718;BME280;32448;44.960;-0.698;2023-04-07T11:13:03;101552.06;;;16.67;100.00
46718;BME280;32448;44.960;-0.698;2023-04-07T11:15:31;101548.44;;;16.56;100.00
46718;BME280;32448;44.960;-0.698;2023-04-07T11:18:09;101554.59;;;16.56;100.00
46718;BME280;32448;44.960;-0.698;2023-04-07T11:20:41;101550.19;;;16.54;100.00
46718;BME280;32448;44.960;-0.698;2023-04-07T11:23:11;101551.81;;;16.30;100.00
46718;BME280;32448;44.960;-0.698;2023-04-07T11:25:40;101553.47;;;16.12;100.00
46718;BME280;32448;44.960;-0.698;2023-04-07T11:28:08;101547.31;;;16.11;100.00
46718;BME280;32448;44.960;-0.698;2023-04-07T11:30:36;101536.91;;;16.40;100.00
46718;BME280;32448;44.960;-0.698;2023-04-07T11:33:03;101536.00;;;16.33;100.00
46718;BME280;32448;44.960;-0.698;2023-04-07T11:35:30;101535.19;;;16.45;100.00
46718;BME280;32448;44.960;-0.698;2023-04-07T11:37:58;101532.66;;;16.69;100.00
46718;BME280;32448;44.960;-0.698;2023-04-07T11:40:32;101530.09;;;16.77;100.00
46718;BME280;32448;44.960;-0.698;2023-04-07T11:43:00;101525.75;;;17.00;100.00
46718;BME280;32448;44.960;-0.698;2023-04-07T11:45:28;101520.44;;;16.91;100.00
46718;BME280;32448;44.960;-0.698;2023-04-07T11:47:55;101521.31;;;16.87;100.00
46718;BME280;32448;44.960;-0.698;2023-04-07T11:50:40;101523.09;;;16.97;100.00
46718;BME280;32448;44.960;-0.698;2023-04-07T11:53:08;101517.75;;;16.74;100.00
46718;BME280;32448;44.960;-0.698;2023-04-07T11:55:35;101509.84;;;16.82;100.00
46718;BME280;32448;44.960;-0.698;2023-04-07T11:58:06;101510.69;;;16.66;100.00
46718;BME280;32448;44.960;-0.698;2023-04-07T12:00:51;101510.59;;;16.60;100.00
46718;BME280;32448;44.960;-0.698;2023-04-07T12:03:18;101509.72;;;16.61;100.00
46718;BME280;32448;44.960;-0.698;2023-04-07T12:05:46;101503.69;;;16.83;100.00
46718;BME280;32448;44.960;-0.698;2023-04-07T12:08:14;101512.53;;;16.88;100.00
46718;BME280;32448;44.960;-0.698;2023-04-07T12:10:42;101512.50;;;16.91;100.00
46718;BME280;32448;44.960;-0.698;2023-04-07T12:13:09;101510.78;;;16.99;100.00
46718;BME280;32448;44.960;-0.698;2023-04-07T12:15:36;101511.72;;;17.20;100.00
46718;BME280;32448;44.960;-0.698;2023-04-07T12:18:06;101517.84;;;17.09;100.00
46718;BME280;32448;44.960;-0.698;2023-04-07T12:20:33;101509.88;;;16.91;100.00
46718;BME280;32448;44.960;-0.698;2023-04-07T12:23:02;101507.22;;;16.84;100.00
46718;BME280;32448;44.960;-0.698;2023-04-07T12:25:29;101505.50;;;17.05;100.00
46718;BME280;32448;44.960;-0.698;2023-04-07T12:27:57;101504.66;;;17.11;100.00
46718;BME280;32448;44.960;-0.698;2023-04-07T12:30:24;101502.88;;;17.01;100.00
46718;BME280;32448;44.960;-0.698;2023-04-07T12:32:51;101505.53;;;17.08;100.00
46718;BME280;32448;44.960;-0.698;2023-04-07T12:35:19;101502.91;;;17.37;100.00
46718;BME280;32448;44.960;-0.698;2023-04-07T12:37:46;101504.69;;;17.43;100.00
46718;BME280;32448;44.960;-0.698;2023-04-07T12:40:15;101508.22;;;17.56;100.00
46718;BME280;32448;44.960;-0.698;2023-04-07T12:42:43;101495.00;;;17.51;100.00
46718;BME280;32448;44.960;-0.698;2023-04-07T12:45:10;101499.41;;;17.41;100.00
46718;BME280;32448;44.960;-0.698;2023-04-07T12:47:37;101496.75;;;17.57;100.00
46718;BME280;32448;44.960;-0.698;2023-04-07T12:50:04;101487.09;;;17.75;100.00
46718;BME280;32448;44.960;-0.698;2023-04-07T12:52:31;101491.47;;;17.98;100.00
46718;BME280;32448;44.960;-0.698;2023-04-07T12:54:58;101479.09;;;18.04;100.00
46718;BME280;32448;44.960;-0.698;2023-04-07T12:57:25;101487.00;;;18.18;100.00
46718;BME280;32448;44.960;-0.698;2023-04-07T12:59:53;101485.19;;;18.28;100.00